Orchid, Florida
Current Conditions -  °F | °C
As of 6:53 PM on Sunday 23 Nov 2014 (Local Time) from KVRB Reporting Station
Clear Clear  
Wind Chill: 75°   Ceiling: Unl
Heat Index: 75°   Visibility: 10mi
Dew Point: 72°   Wind: 10mph
Humidity: 90%   Direction: 150°SSE
Pressure: 29.94"   Gusts: NA
Location:  27.7066°N, 80.3826°W
Report Text: KVRB 232353Z AUTO 15009KT 10SM CLR 24/22 A2994 RMK AO2 SLP136 T02390222 10278 20239 53009
Loading
Personal Weather Stations






























Interactive Weather Map New forecast layout! Learn more

10-Day Weather Forecast

Advertisements
Track Severe Weather on mobile